Time;durP1;ratioP1;P1;durP2;ratioP2;P2;SDS_P1;SDS_P2;PMS_P1;PMS_P2;Temp;Humidity;BMP_temperature;BMP_pressure;BME280_temperature;BME280_humidity;BME280_pressure;Samples;Min_cycle;Max_cycle;Signal;HPM_P1;HPM_P2
2024/01/06 00:00:41;;;;;;;16.25;10.88;;;;;;;;;;4927465;29;20043;-69
2024/01/06 00:03:07;;;;;;;17.60;12.02;;;;;;;;;;4926609;29;20050;-69
2024/01/06 00:05:33;;;;;;;16.70;11.65;;;;;;;;;;4933418;29;20097;-69
2024/01/06 00:07:59;;;;;;;17.77;11.40;;;;;;;;;;4922246;29;20804;-69
2024/01/06 00:10:26;;;;;;;17.70;11.80;;;;;;;;;;4930128;28;20047;-69
2024/01/06 00:12:52;;;;;;;17.80;12.73;;;;;;;;;;4927324;29;20419;-69
2024/01/06 00:15:18;;;;;;;16.98;12.05;;;;;;;;;;4929833;28;20043;-69
2024/01/06 00:17:44;;;;;;;17.13;11.88;;;;;;;;;;4938474;28;20130;-69
2024/01/06 00:20:10;;;;;;;18.27;12.88;;;;;;;;;;4949877;28;20521;-69
2024/01/06 00:22:36;;;;;;;18.58;12.73;;;;;;;;;;4946082;29;20039;-69
2024/01/06 00:25:02;;;;;;;17.08;12.73;;;;;;;;;;4925915;29;20039;-69
2024/01/06 00:27:28;;;;;;;20.00;12.80;;;;;;;;;;4928195;29;20503;-69
2024/01/06 00:29:54;;;;;;;18.52;13.02;;;;;;;;;;4927420;29;20055;-69
2024/01/06 00:32:20;;;;;;;19.70;13.18;;;;;;;;;;4926132;29;20058;-69
2024/01/06 00:34:47;;;;;;;21.45;13.65;;;;;;;;;;4928630;29;20054;-69
2024/01/06 00:37:13;;;;;;;19.02;13.63;;;;;;;;;;4914997;29;20051;-69
2024/01/06 00:39:39;;;;;;;20.08;13.32;;;;;;;;;;4921492;29;20040;-69
2024/01/06 00:42:05;;;;;;;19.95;13.60;;;;;;;;;;4942235;29;20047;-69
2024/01/06 00:44:31;;;;;;;21.88;13.00;;;;;;;;;;4923378;29;20047;-69
2024/01/06 00:46:57;;;;;;;22.75;13.43;;;;;;;;;;4925104;29;20125;-69
2024/01/06 00:49:23;;;;;;;19.50;14.23;;;;;;;;;;4929920;29;20845;-69
2024/01/06 00:51:50;;;;;;;18.83;13.25;;;;;;;;;;4924722;29;20051;-69
2024/01/06 00:54:16;;;;;;;20.65;13.88;;;;;;;;;;4929902;29;20058;-70
2024/01/06 00:56:42;;;;;;;20.25;13.93;;;;;;;;;;4928893;29;20749;-69
2024/01/06 00:59:08;;;;;;;22.98;14.10;;;;;;;;;;4945657;29;20830;-69
2024/01/06 01:01:34;;;;;;;23.58;14.77;;;;;;;;;;4927070;29;20051;-69
2024/01/06 01:04:01;;;;;;;20.95;14.00;;;;;;;;;;4926548;29;20059;-69
2024/01/06 01:06:27;;;;;;;24.40;15.13;;;;;;;;;;4927220;29;20396;-69
2024/01/06 01:08:53;;;;;;;24.67;13.95;;;;;;;;;;4929930;29;20054;-69
2024/01/06 01:11:20;;;;;;;21.20;14.02;;;;;;;;;;4946988;29;20130;-69
2024/01/06 01:13:46;;;;;;;24.10;14.02;;;;;;;;;;4920972;29;20135;-69
2024/01/06 01:16:12;;;;;;;22.10;13.50;;;;;;;;;;4925029;29;20047;-69
2024/01/06 01:18:38;;;;;;;18.58;12.35;;;;;;;;;;4947262;29;20049;-69
2024/01/06 01:21:04;;;;;;;20.45;12.75;;;;;;;;;;4928888;29;20106;-69
2024/01/06 01:23:30;;;;;;;20.52;13.73;;;;;;;;;;4929831;29;20051;-69
2024/01/06 01:25:56;;;;;;;21.88;13.77;;;;;;;;;;4926742;29;20174;-69
2024/01/06 01:28:22;;;;;;;20.05;14.13;;;;;;;;;;4929337;29;20075;-69
2024/01/06 01:30:48;;;;;;;20.95;13.35;;;;;;;;;;4926073;29;20140;-69
2024/01/06 01:33:14;;;;;;;18.40;12.50;;;;;;;;;;4910975;29;20060;-69
2024/01/06 01:35:40;;;;;;;18.27;12.82;;;;;;;;;;4909557;29;20125;-69
2024/01/06 01:38:08;;;;;;;21.98;13.55;;;;;;;;;;4927522;29;20652;-69
2024/01/06 01:40:34;;;;;;;20.10;12.73;;;;;;;;;;4906747;29;20059;-69
2024/01/06 01:43:00;;;;;;;20.48;12.57;;;;;;;;;;4910639;29;20043;-69
2024/01/06 01:45:26;;;;;;;23.60;13.55;;;;;;;;;;4927357;29;20066;-69
2024/01/06 01:47:52;;;;;;;20.80;14.18;;;;;;;;;;4910548;29;20499;-69
2024/01/06 01:50:20;;;;;;;22.58;13.30;;;;;;;;;;4910097;29;20048;-69
2024/01/06 01:52:46;;;;;;;22.33;13.98;;;;;;;;;;4921063;29;20083;-69
2024/01/06 01:55:12;;;;;;;21.90;12.90;;;;;;;;;;4910302;29;20047;-69
2024/01/06 01:57:38;;;;;;;22.00;13.60;;;;;;;;;;4927530;29;20528;-69
2024/01/06 02:00:04;;;;;;;20.13;13.13;;;;;;;;;;4910497;29;20075;-69
2024/01/06 02:02:31;;;;;;;19.33;13.68;;;;;;;;;;4894155;29;20048;-69
2024/01/06 02:04:57;;;;;;;20.63;13.82;;;;;;;;;;4907265;29;20047;-69
2024/01/06 02:07:23;;;;;;;22.73;12.45;;;;;;;;;;4909146;29;20089;-69
2024/01/06 02:09:49;;;;;;;17.40;12.07;;;;;;;;;;4904470;29;20052;-69
2024/01/06 02:12:15;;;;;;;19.15;12.60;;;;;;;;;;4926665;29;20054;-69
2024/01/06 02:14:43;;;;;;;18.90;12.70;;;;;;;;;;4909154;29;20416;-69
2024/01/06 02:17:09;;;;;;;21.55;12.93;;;;;;;;;;4924566;29;20511;-69
2024/01/06 02:19:35;;;;;;;19.70;12.68;;;;;;;;;;4909397;29;20799;-69
2024/01/06 02:22:01;;;;;;;21.23;12.93;;;;;;;;;;4909023;29;20051;-69
2024/01/06 02:24:27;;;;;;;18.33;12.30;;;;;;;;;;4909115;29;20103;-69
2024/01/06 02:26:53;;;;;;;19.15;12.40;;;;;;;;;;4909347;29;20055;-69
2024/01/06 02:29:19;;;;;;;17.25;11.43;;;;;;;;;;4926892;29;20503;-69
2024/01/06 02:31:45;;;;;;;17.52;12.00;;;;;;;;;;4931319;29;20055;-69
2024/01/06 02:34:11;;;;;;;18.88;11.10;;;;;;;;;;4928132;29;20526;-69
2024/01/06 02:36:37;;;;;;;14.98;10.88;;;;;;;;;;4928086;29;20047;-69
2024/01/06 02:39:03;;;;;;;16.58;10.57;;;;;;;;;;4927701;29;20051;-69
2024/01/06 02:41:29;;;;;;;16.67;10.50;;;;;;;;;;4926437;29;20078;-69
2024/01/06 02:43:56;;;;;;;17.30;11.38;;;;;;;;;;4912301;29;20046;-69
2024/01/06 02:46:22;;;;;;;21.00;13.35;;;;;;;;;;4927827;29;20062;-69
2024/01/06 02:48:48;;;;;;;17.48;11.77;;;;;;;;;;4927673;29;20050;-69
2024/01/06 02:51:14;;;;;;;21.70;12.55;;;;;;;;;;4945420;29;20051;-69
2024/01/06 02:53:40;;;;;;;18.83;12.27;;;;;;;;;;4927686;29;20356;-69
2024/01/06 02:56:10;;;;;;;24.17;13.30;;;3.10;99.90;;;;;;4927901;29;20729;-69
2024/01/06 02:58:36;;;;;;;18.80;11.50;;;;;;;;;;4928119;29;20050;-69
2024/01/06 03:01:02;;;;;;;18.30;11.63;;;;;;;;;;4927511;29;20054;-69
2024/01/06 03:03:28;;;;;;;17.10;11.05;;;;;;;;;;4945027;29;20047;-69
2024/01/06 03:05:54;;;;;;;19.58;11.95;;;;;;;;;;4927301;29;20054;-69
2024/01/06 03:08:20;;;;;;;16.77;11.10;;;;;;;;;;4927365;29;20042;-69
2024/01/06 03:10:46;;;;;;;18.30;11.93;;;;;;;;;;4923339;29;20047;-69
2024/01/06 03:13:12;;;;;;;17.08;10.93;;;;;;;;;;4927759;29;20487;-69
2024/01/06 03:15:38;;;;;;;17.08;12.02;;;;;;;;;;4924991;29;20054;-69
2024/01/06 03:18:04;;;;;;;19.02;12.43;;;;;;;;;;4927507;29;20047;-69
2024/01/06 03:20:30;;;;;;;19.92;12.30;;;;;;;;;;4926971;29;20051;-69
2024/01/06 03:22:56;;;;;;;18.23;12.25;;;;;;;;;;4927342;29;20116;-69
2024/01/06 03:25:22;;;;;;;16.27;11.52;;;;;;;;;;4927481;29;20051;-69
2024/01/06 03:27:48;;;;;;;16.20;12.10;;;;;;;;;;4944610;29;20046;-69
2024/01/06 03:30:14;;;;;;;18.90;12.60;;;;;;;;;;4927141;29;20070;-69
2024/01/06 03:32:40;;;;;;;16.48;11.48;;;;;;;;;;4927119;29;20062;-69
2024/01/06 03:35:06;;;;;;;17.02;12.18;;;;;;;;;;4911796;29;20047;-69
2024/01/06 03:37:33;;;;;;;16.60;11.68;;;;;;;;;;4927579;29;20496;-69
2024/01/06 03:39:59;;;;;;;16.55;11.23;;;;;;;;;;4942687;29;20408;-69
2024/01/06 03:42:25;;;;;;;18.10;10.25;;;;;;;;;;4921124;29;20043;-69
2024/01/06 03:44:51;;;;;;;20.10;11.40;;;;;;;;;;4924574;29;20051;-69
2024/01/06 03:47:17;;;;;;;14.73;10.93;;;;;;;;;;4937748;29;20069;-69
2024/01/06 03:49:43;;;;;;;18.08;11.10;;;;;;;;;;4916657;28;20047;-69
2024/01/06 03:52:09;;;;;;;17.48;10.77;;;;;;;;;;4946969;28;20086;-69
2024/01/06 03:54:35;;;;;;;15.88;10.55;;;;;;;;;;4930660;29;20806;-69
2024/01/06 03:57:01;;;;;;;19.13;11.63;;;;;;;;;;4925479;29;20047;-69
2024/01/06 03:59:27;;;;;;;20.33;11.40;;;;;;;;;;4927830;29;20039;-69
2024/01/06 04:01:53;;;;;;;18.50;11.55;;;;;;;;;;4930804;29;20256;-69
2024/01/06 04:04:20;;;;;;;19.70;10.27;;;;;;;;;;4928617;29;20083;-69
2024/01/06 04:06:46;;;;;;;17.48;11.30;;;;;;;;;;4922949;29;20043;-69
2024/01/06 04:09:12;;;;;;;18.08;11.35;;;;;;;;;;4925764;29;20062;-69
2024/01/06 04:11:38;;;;;;;19.98;12.45;;;;;;;;;;4919573;29;20399;-69
2024/01/06 04:14:04;;;;;;;19.85;12.00;;;;;;;;;;4930095;29;20059;-69
2024/01/06 04:16:30;;;;;;;17.75;11.32;;;;;;;;;;4945548;29;20134;-69
2024/01/06 04:18:56;;;;;;;16.85;11.32;;;;;;;;;;4923630;29;20363;-69
2024/01/06 04:21:22;;;;;;;19.77;12.98;;;;;;;;;;4930399;29;20053;-69
2024/01/06 04:23:48;;;;;;;19.73;11.65;;;;;;;;;;4927722;29;20048;-69
2024/01/06 04:26:14;;;;;;;19.98;11.93;;;;;;;;;;4928055;29;20055;-69
2024/01/06 04:28:40;;;;;;;17.45;10.93;;;;;;;;;;4915641;29;20074;-69
2024/01/06 04:31:06;;;;;;;18.70;11.98;;;;;;;;;;4926650;29;20063;-69
2024/01/06 04:33:33;;;;;;;17.20;10.07;;;;;;;;;;4944153;29;20455;-69
2024/01/06 04:35:59;;;;;;;18.58;11.43;;;;;;;;;;4925051;29;20050;-69
2024/01/06 04:38:25;;;;;;;20.25;11.23;;;;;;;;;;4926517;29;20047;-69
2024/01/06 04:40:51;;;;;;;19.27;10.73;;;;;;;;;;4928888;29;20152;-69
2024/01/06 04:43:17;;;;;;;17.02;11.05;;;;;;;;;;4925078;29;20138;-69
2024/01/06 04:45:43;;;;;;;18.67;10.52;;;;;;;;;;4922900;29;20043;-69
2024/01/06 04:48:09;;;;;;;14.80;11.02;;;;;;;;;;4927475;29;20075;-69
2024/01/06 04:50:35;;;;;;;18.90;10.60;;;;;;;;;;4926643;29;20070;-69
2024/01/06 04:53:01;;;;;;;17.73;10.23;;;;;;;;;;4930093;29;20055;-69
2024/01/06 04:55:27;;;;;;;17.45;11.45;;;;;;;;;;4922032;29;20565;-69
2024/01/06 04:57:53;;;;;;;20.02;10.55;;;;;;;;;;4920581;29;20511;-69
2024/01/06 05:00:19;;;;;;;19.25;11.77;;;;;;;;;;4929747;29;20047;-69
2024/01/06 05:02:45;;;;;;;18.25;11.63;;;;;;;;;;4926621;28;20042;-69
2024/01/06 05:05:11;;;;;;;18.95;12.07;;;;;;;;;;4927756;29;20130;-69
2024/01/06 05:07:37;;;;;;;19.52;11.27;;;;;;;;;;4929797;29;20109;-69
2024/01/06 05:10:03;;;;;;;17.52;10.65;;;;;;;;;;4917501;29;20397;-69
2024/01/06 05:12:29;;;;;;;23.85;12.30;;;;;;;;;;4927221;29;20050;-69
2024/01/06 05:14:55;;;;;;;20.63;11.88;;;;;;;;;;4944541;29;20043;-69
2024/01/06 05:17:21;;;;;;;22.17;12.63;;;;;;;;;;4923003;29;20700;-69
2024/01/06 05:19:47;;;;;;;24.38;13.65;;;;;;;;;;4929521;29;20408;-69
2024/01/06 05:22:13;;;;;;;21.65;11.88;;;;;;;;;;4928082;29;20047;-69
2024/01/06 05:24:39;;;;;;;21.83;11.63;;;;;;;;;;4944729;29;20046;-69
2024/01/06 05:27:05;;;;;;;24.92;14.35;;;;;;;;;;4943241;29;20043;-69
2024/01/06 05:29:31;;;;;;;23.92;13.68;;;;;;;;;;4926584;29;20047;-69
2024/01/06 05:31:57;;;;;;;23.42;12.23;;;;;;;;;;4924952;29;20062;-69
2024/01/06 05:34:23;;;;;;;20.02;12.32;;;;;;;;;;4929183;29;20055;-69
2024/01/06 05:36:49;;;;;;;21.75;12.80;;;;;;;;;;4926627;29;20429;-69
2024/01/06 05:39:15;;;;;;;20.75;12.48;;;;;;;;;;4942780;29;20050;-69
2024/01/06 05:41:42;;;;;;;18.58;12.15;;;;;;;;;;4928797;29;20079;-69
2024/01/06 05:44:08;;;;;;;23.65;13.18;;;;;;;;;;4927548;29;20409;-69
2024/01/06 05:46:35;;;;;;;22.50;12.80;;;;;;;;;;4928735;29;20062;-69
2024/01/06 05:49:01;;;;;;;17.83;11.77;;;;;;;;;;4925064;29;20051;-69
2024/01/06 05:51:27;;;;;;;22.23;12.50;;;;;;;;;;4940307;29;20055;-69
2024/01/06 05:53:54;;;;;;;18.88;11.88;;;;;;;;;;4946759;29;20042;-69
2024/01/06 05:56:26;;;;;;;19.48;10.90;;;;;;;;;;4942688;29;20047;-69
2024/01/06 05:58:53;;;;;;;21.42;12.13;;;;;;;;;;4941277;29;20493;-69
2024/01/06 06:01:19;;;;;;;17.75;10.35;;;;;;;;;;4925050;29;20055;-69
2024/01/06 06:03:46;;;;;;;21.25;12.38;;;;;;;;;;4947037;29;20043;-69
2024/01/06 06:06:12;;;;;;;18.58;12.02;;;;;;;;;;4943066;29;20118;-69
2024/01/06 06:08:38;;;;;;;19.30;11.50;;;;;;;;;;4918758;29;20043;-69
2024/01/06 06:11:10;;;;;;;20.70;11.50;;;;;;;;;;4921509;29;20059;-69
2024/01/06 06:13:37;;;;;;;22.30;11.52;;;;;;;;;;4918718;29;20465;-69
2024/01/06 06:16:03;;;;;;;22.50;12.15;;;;;;;;;;4921665;29;20055;-69
2024/01/06 06:18:29;;;;;;;19.88;12.50;;;;;;;;;;4928683;29;20086;-69
2024/01/06 06:20:55;;;;;;;20.35;11.63;;;;;;;;;;4946207;29;20122;-69
2024/01/06 06:23:21;;;;;;;19.17;12.45;;;;;;;;;;4923698;29;20406;-69
2024/01/06 06:25:47;;;;;;;18.27;11.85;;;;;;;;;;4928571;29;20051;-69
2024/01/06 06:28:13;;;;;;;17.92;11.35;;;;;;;;;;4945363;29;20051;-69
2024/01/06 06:30:39;;;;;;;18.02;11.30;;;;;;;;;;4945600;29;20047;-69
2024/01/06 06:33:05;;;;;;;17.88;11.20;;;;;;;;;;4918249;29;20070;-69
2024/01/06 06:35:31;;;;;;;15.75;10.30;;;;;;;;;;4927726;29;20047;-69
2024/01/06 06:37:57;;;;;;;18.10;11.50;;;;;;;;;;4928552;29;20426;-69
2024/01/06 06:40:23;;;;;;;22.67;11.55;;;;;;;;;;4935489;29;20609;-69
2024/01/06 06:42:50;;;;;;;16.85;10.20;;;;;;;;;;4939984;29;20098;-69
2024/01/06 06:45:16;;;;;;;19.90;11.63;;;;;;;;;;4921814;29;20047;-69
2024/01/06 06:47:42;;;;;;;20.45;12.25;;;;;;;;;;4925057;29;20042;-69
2024/01/06 06:50:08;;;;;;;20.02;11.90;;;;;;;;;;4912006;29;20050;-69
2024/01/06 06:52:34;;;;;;;16.65;11.20;;;;;;;;;;4934394;29;20503;-69
2024/01/06 06:55:00;;;;;;;17.42;12.05;;;;;;;;;;4939574;29;20051;-69
2024/01/06 06:57:26;;;;;;;17.10;11.23;;;;;;;;;;4924887;29;20130;-69
2024/01/06 06:59:52;;;;;;;17.67;10.77;;;;;;;;;;4925793;29;20047;-69
2024/01/06 07:02:18;;;;;;;17.45;10.55;;;;;;;;;;4920441;29;20050;-69
2024/01/06 07:04:44;;;;;;;19.50;11.63;;;;;;;;;;4919632;29;20150;-69
2024/01/06 07:07:11;;;;;;;19.23;11.88;;;;;;;;;;4921052;29;20482;-69
2024/01/06 07:09:37;;;;;;;18.23;11.95;;;;;;;;;;4923345;29;20792;-69
2024/01/06 07:12:03;;;;;;;17.83;10.68;;;;;;;;;;4944326;29;20102;-69
2024/01/06 07:14:29;;;;;;;15.50;10.43;;;;;;;;;;4944774;29;20043;-69
2024/01/06 07:16:55;;;;;;;17.30;10.82;;;;;;;;;;4944507;29;20046;-69
2024/01/06 07:19:21;;;;;;;16.67;11.68;;;;;;;;;;4943311;29;20821;-69
2024/01/06 07:21:47;;;;;;;16.23;11.20;;;;;;;;;;4926240;29;20047;-69
2024/01/06 07:24:13;;;;;;;16.38;10.20;;;;;;;;;;4919629;29;20065;-69
2024/01/06 07:26:39;;;;;;;18.35;11.38;;;;;;;;;;4915451;29;20058;-69
2024/01/06 07:29:05;;;;;;;16.00;10.60;;;;;;;;;;4919463;29;20047;-69
2024/01/06 07:31:31;;;;;;;16.00;10.38;;;;;;;;;;4941207;29;20055;-69
2024/01/06 07:33:57;;;;;;;16.45;11.30;;;;;;;;;;4919647;29;20122;-69
2024/01/06 07:36:23;;;;;;;15.43;11.15;;;;;;;;;;4918960;29;20170;-69
2024/01/06 07:38:49;;;;;;;15.40;10.95;;;;;;;;;;4925169;29;20043;-71
2024/01/06 07:41:15;;;;;;;15.40;11.23;;;;;;;;;;4924218;29;20055;-70
2024/01/06 07:43:41;;;;;;;15.30;11.07;;;;;;;;;;4923997;28;20050;-70
2024/01/06 07:46:07;;;;;;;14.98;10.32;;;;;;;;;;4927833;29;20062;-70
2024/01/06 07:48:33;;;;;;;18.38;11.65;;;;;;;;;;4942451;29;20077;-70
2024/01/06 07:50:59;;;;;;;14.88;10.68;;;;;;;;;;4945291;28;20051;-69
2024/01/06 07:53:25;;;;;;;15.63;10.85;;;;;;;;;;4931514;29;20051;-69
2024/01/06 07:55:51;;;;;;;20.85;12.00;;;;;;;;;;4921821;29;20047;-71
2024/01/06 07:58:17;;;;;;;18.05;12.25;;;;;;;;;;4924074;29;20130;-70
2024/01/06 08:00:43;;;;;;;21.75;12.07;;;;;;;;;;4927388;29;20087;-70
2024/01/06 08:03:11;;;;;;;19.17;11.80;;;;;;;;;;4918995;29;20471;-70
2024/01/06 08:05:37;;;;;;;15.07;11.07;;;;;;;;;;4942513;29;20076;-69
2024/01/06 08:08:04;;;;;;;17.58;11.95;;;;;;;;;;4923724;29;20055;-69
2024/01/06 08:10:31;;;;;;;18.08;12.82;;;;;;;;;;4926814;29;20783;-70
2024/01/06 08:12:57;;;;;;;17.27;11.23;;;;;;;;;;4910150;29;20099;-70
2024/01/06 08:15:23;;;;;;;19.38;12.50;;;;;;;;;;4937407;29;20069;-71
2024/01/06 08:17:49;;;;;;;18.00;11.95;;;;;;;;;;4942455;29;20046;-70
2024/01/06 08:20:15;;;;;;;18.88;12.10;;;;;;;;;;4922012;29;20051;-71
2024/01/06 08:22:41;;;;;;;17.08;12.25;;;;;;;;;;4944497;29;20050;-71
2024/01/06 08:25:08;;;;;;;17.48;12.07;;;;;;;;;;4923387;29;20426;-71
2024/01/06 08:27:34;;;;;;;21.13;11.85;;;;;;;;;;4925615;29;20055;-70
2024/01/06 08:30:00;;;;;;;18.98;12.00;;;;;;;;;;4924552;29;20186;-71
2024/01/06 08:32:26;;;;;;;19.55;12.93;;;;;;;;;;4928648;28;20157;-71
2024/01/06 08:34:52;;;;;;;17.95;12.30;;;;;;;;;;4930742;29;20074;-70
2024/01/06 08:37:18;;;;;;;17.50;11.88;;;;;;;;;;4927213;28;20105;-71
2024/01/06 08:39:44;;;;;;;19.35;13.10;;;;;;;;;;4931846;29;20055;-70
2024/01/06 08:42:10;;;;;;;22.55;12.23;;;;;;;;;;4952385;28;20051;-70
2024/01/06 08:44:36;;;;;;;18.15;13.45;;;;;;;;;;4933420;29;20415;-71
2024/01/06 08:47:02;;;;;;;16.17;11.88;;;;;;;;;;4946778;29;20051;-70
2024/01/06 08:49:28;;;;;;;17.75;12.43;;;;;;;;;;4926890;29;20047;-68
2024/01/06 08:51:54;;;;;;;19.48;13.23;;;;;;;;;;4926416;29;20138;-69
2024/01/06 08:54:20;;;;;;;21.77;13.30;;;;;;;;;;4951833;28;20127;-69
2024/01/06 08:56:47;;;;;;;24.08;13.82;;;;;;;;;;4947552;28;20047;-69
2024/01/06 08:59:13;;;;;;;18.50;12.60;;;;;;;;;;4916291;29;20850;-69
2024/01/06 09:01:39;;;;;;;21.40;13.90;;;;;;;;;;4931293;29;20045;-69
2024/01/06 09:04:06;;;;;;;19.13;12.82;;;;;;;;;;4929087;29;20062;-69
2024/01/06 09:06:32;;;;;;;22.13;13.43;;;;;;;;;;4925215;29;20132;-69
2024/01/06 09:08:58;;;;;;;19.10;12.95;;;;;;;;;;4933434;29;20153;-68
2024/01/06 09:11:24;;;;;;;21.55;13.60;;;;;;;;;;4910513;29;20130;-69
2024/01/06 09:13:52;;;;;;;21.23;14.63;;;;;;;;;;4930228;29;20415;-69
2024/01/06 09:16:19;;;;;;;20.08;13.60;;;;;;;;;;4928855;29;20465;-68
2024/01/06 09:18:45;;;;;;;21.08;12.93;;;;;;;;;;4929719;29;20157;-69
2024/01/06 09:21:11;;;;;;;22.67;14.35;;;;;;;;;;4925730;29;20081;-69
2024/01/06 09:23:37;;;;;;;21.95;13.65;;;;;;;;;;4931697;29;20058;-69
2024/01/06 09:26:03;;;;;;;22.80;15.00;;;;;;;;;;4923506;29;20055;-70
2024/01/06 09:28:29;;;;;;;23.15;15.23;;;;;;;;;;4927825;29;20149;-70
2024/01/06 09:30:55;;;;;;;21.38;14.45;;;;;;;;;;4928767;29;20137;-70
2024/01/06 09:33:22;;;;;;;21.65;14.20;;;;;;;;;;4929064;29;20058;-70
2024/01/06 09:35:48;;;;;;;22.05;14.07;;;;;;;;;;4928154;29;20117;-70
2024/01/06 09:38:14;;;;;;;23.83;15.02;;;;;;;;;;4926376;29;20051;-70
2024/01/06 09:40:44;;;;;;;21.58;13.48;;;;;;;;;;4945258;29;20078;-70
2024/01/06 09:43:11;;;;;;;22.70;14.82;;;;;;;;;;4928934;29;20154;-70
2024/01/06 09:45:38;;;;;;;21.83;14.55;;;;;;;;;;4925543;29;20054;-70
2024/01/06 09:48:11;;;;;;;22.60;15.27;;;;;;;;;;4928317;29;20047;-70
2024/01/06 09:50:38;;;;;;;25.20;14.55;;;;;;;;;;4938438;28;20047;-70
2024/01/06 09:53:06;;;;;;;22.23;15.02;;;;;;;;;;4928298;29;20238;-71
2024/01/06 09:55:32;;;;;;;22.65;15.05;;;;;;;;;;4927282;29;20559;-70
2024/01/06 09:57:58;;;;;;;24.15;15.95;;;;;;;;;;4929131;29;20047;-70
2024/01/06 10:00:24;;;;;;;22.33;14.02;;;;;;;;;;4929019;29;20150;-70
2024/01/06 10:02:51;;;;;;;20.08;15.02;;;;;;;;;;4928761;29;20117;-70
2024/01/06 10:05:17;;;;;;;21.55;14.68;;;;;;;;;;4945899;29;20050;-70
2024/01/06 10:07:47;;;;;;;23.02;13.98;;;;;;;;;;4928571;29;20089;-70
2024/01/06 10:10:14;;;;;;;24.58;14.23;;;;;;;;;;4928751;29;20690;-70
2024/01/06 10:12:40;;;;;;;24.23;14.57;;;;;;;;;;4945834;29;20083;-70
2024/01/06 10:15:07;;;;;;;25.02;14.00;;;;;;;;;;4944892;29;20114;-70
2024/01/06 10:17:33;;;;;;;21.02;13.75;;;;;;;;;;4924134;28;20047;-70
2024/01/06 10:20:00;;;;;;;22.00;14.48;;;;;;;;;;4912312;28;20439;-70
2024/01/06 10:22:27;;;;;;;21.73;13.30;;;;;;;;;;4924258;29;20047;-70
2024/01/06 10:24:53;;;;;;;24.20;14.32;;;;;;;;;;4927869;29;20119;-70
2024/01/06 10:27:19;;;;;;;21.52;14.48;;;;;;;;;;4928408;29;20094;-70
2024/01/06 10:29:45;;;;;;;24.85;14.70;;;;;;;;;;4924521;29;20098;-70
2024/01/06 10:32:11;;;;;;;22.92;13.60;;;;;;;;;;4931062;28;20531;-70
2024/01/06 10:34:37;;;;;;;23.08;13.95;;;;;;;;;;4927980;29;20062;-70
2024/01/06 10:37:03;;;;;;;23.75;14.10;;;;;;;;;;4925587;29;20483;-70
2024/01/06 10:39:30;;;;;;;20.90;14.07;;;;;;;;;;4918614;29;20177;-70
2024/01/06 10:41:57;;;;;;;21.52;14.10;;;;;;;;;;4928352;29;20047;-70
2024/01/06 10:44:24;;;;;;;21.38;13.38;;;;;;;;;;4952448;28;20047;-70
2024/01/06 10:46:50;;;;;;;18.65;12.88;;;;;;;;;;4911551;29;20078;-70
2024/01/06 10:49:17;;;;;;;21.27;13.55;;;;;;;;;;4923939;29;20724;-70
2024/01/06 10:51:45;;;;;;;19.83;13.07;;;;;;;;;;4929489;29;20503;-70
2024/01/06 10:54:12;;;;;;;25.52;15.00;;;;;;;;;;4920890;29;20353;-70
2024/01/06 10:56:38;;;;;;;21.70;14.55;;;;;;;;;;4916489;28;20046;-70
2024/01/06 10:59:04;;;;;;;23.55;13.90;;;;;;;;;;4922490;29;20146;-70
2024/01/06 11:01:31;;;;;;;19.95;12.40;;;;;;;;;;4910130;29;20046;-70
2024/01/06 11:03:58;;;;;;;21.13;13.20;;;;;;;;;;4920406;29;20805;-70
2024/01/06 11:06:25;;;;;;;21.85;13.45;;;;;;;;;;4920695;29;20051;-70
2024/01/06 11:09:10;;;;;;;22.42;14.50;;;;;;;;;;4928758;29;20129;-70
2024/01/06 11:11:37;;;;;;;23.05;13.57;;;;;;;;;;4924579;29;20711;-70
2024/01/06 11:14:21;;;;;;;21.15;13.82;;;;;;;;;;4927659;29;20050;-70
2024/01/06 11:16:47;;;;;;;23.85;14.10;;;;;;;;;;4925577;29;20094;-70
2024/01/06 11:19:34;;;;;;;20.52;12.68;;;;;;;;;;4944228;29;20047;-70
2024/01/06 11:22:19;;;;;;;22.58;13.43;;;;;;;;;;4930743;29;20106;-70
2024/01/06 11:24:49;;;;;;;21.17;14.40;;;;;;;;;;4927028;29;20414;-70
2024/01/06 11:27:20;;;;;;;22.70;14.98;;;;;;;;;;4927114;29;20043;-70
2024/01/06 11:29:46;;;;;;;21.70;14.75;;;;;;;;;;4926956;29;20492;-70
2024/01/06 11:32:22;;;;;;;24.42;15.55;;;;;;;;;;4926143;29;20066;-70
2024/01/06 11:34:52;;;;;;;22.83;14.57;;;;;;;;;;4923629;28;20050;-70
2024/01/06 11:37:20;;;;;;;19.60;13.45;;;;;;;;;;4921279;29;20075;-70
2024/01/06 11:39:46;;;;;;;21.95;14.05;;;;;;;;;;4936903;29;20039;-70
2024/01/06 11:42:12;;;;;;;21.23;13.95;;;;;;;;;;4925006;29;20139;-71
2024/01/06 11:44:45;;;;;;;23.85;13.82;;;;;;;;;;4927315;29;20455;-70
2024/01/06 11:47:12;;;;;;;18.73;12.70;;;;;;;;;;4925124;29;20059;-70
2024/01/06 11:49:38;;;;;;;19.88;12.73;;;;;;;;;;4924574;29;20094;-70
2024/01/06 11:52:05;;;;;;;19.70;12.40;;;;;;;;;;4923184;29;20055;-70
2024/01/06 11:54:32;;;;;;;18.65;12.18;;;;;;;;;;4944361;29;20050;-70
2024/01/06 11:56:58;;;;;;;19.13;11.40;;;;;;;;;;4925843;29;20126;-70
2024/01/06 11:59:24;;;;;;;19.90;11.90;;;;;;;;;;4944165;29;20499;-70
2024/01/06 12:01:51;;;;;;;18.67;12.75;;;;;;;;;;4940719;29;20054;-70
2024/01/06 12:04:17;;;;;;;16.73;12.30;;;;;;;;;;4924783;29;20062;-70
2024/01/06 12:06:43;;;;;;;20.05;12.07;;;;;;;;;;4925368;29;20054;-70
2024/01/06 12:09:16;;;;;;;16.65;12.38;;;;;;;;;;4944125;29;20043;-70
2024/01/06 12:11:46;;;;;;;16.30;11.15;;;;;;;;;;4926044;29;20122;-70
2024/01/06 12:14:12;;;;;;;19.38;11.40;;;;;;;;;;4926878;29;20639;-71
2024/01/06 12:16:38;;;;;;;17.20;11.23;;;;;;;;;;4928461;29;20046;-70
2024/01/06 12:19:04;;;;;;;16.77;11.85;;;;;;;;;;4928121;29;20134;-70
2024/01/06 12:21:33;;;;;;;16.48;11.82;;;;;;;;;;4928081;29;20079;-70
2024/01/06 12:24:20;;;;;;;15.40;10.23;;;;;;;;;;4929773;29;20043;-70
2024/01/06 12:26:46;;;;;;;16.45;11.20;;;;;;;;;;4927913;29;20057;-70
2024/01/06 12:29:13;;;;;;;16.10;10.20;;;;;;;;;;4929807;29;20479;-70
2024/01/06 12:31:40;;;;;;;16.88;11.82;;;;;;;;;;4929664;29;20099;-70
2024/01/06 12:34:07;;;;;;;15.57;10.50;;;;;;;;;;4928981;29;20055;-70
2024/01/06 12:36:34;;;;;;;16.98;11.10;;;;;;;;;;4932776;29;20051;-70
2024/01/06 12:39:01;;;;;;;13.43;9.75;;;;;;;;;;4928523;29;20054;-70
2024/01/06 12:41:28;;;;;;;15.15;10.18;;;;;;;;;;4930117;29;20058;-70
2024/01/06 12:43:54;;;;;;;15.07;9.80;;;;;;;;;;4930432;29;20082;-71
2024/01/06 12:46:20;;;;;;;13.90;9.20;;;;;;;;;;4930614;29;20749;-70
2024/01/06 12:48:46;;;;;;;14.10;10.30;;;;;;;;;;4929068;29;20510;-70
2024/01/06 12:51:12;;;;;;;14.48;10.18;;;;;;;;;;4926015;29;20062;-70
2024/01/06 12:53:38;;;;;;;13.18;9.10;;;;;;;;;;4931112;28;20043;-70
2024/01/06 12:56:05;;;;;;;13.23;8.80;;;;;;;;;;4931366;29;20086;-70
2024/01/06 12:58:31;;;;;;;12.68;9.18;;;;;;;;;;4914075;28;20043;-70
2024/01/06 13:00:57;;;;;;;13.13;8.98;;;;;;;;;;4929100;29;20054;-70
2024/01/06 13:03:23;;;;;;;14.85;9.50;;;;;;;;;;4928780;29;20711;-70
2024/01/06 13:05:49;;;;;;;14.07;9.77;;;;;;;;;;4929639;29;20054;-70
2024/01/06 13:08:15;;;;;;;16.60;8.63;;;;;;;;;;4947254;29;20829;-70
2024/01/06 13:10:41;;;;;;;12.63;8.27;;;;;;;;;;4929323;29;20455;-70
2024/01/06 13:13:08;;;;;;;12.98;8.80;;;;;;;;;;4929808;29;20058;-70
2024/01/06 13:15:34;;;;;;;11.73;8.52;;;;;;;;;;4927982;29;20051;-70
2024/01/06 13:18:00;;;;;;;12.02;8.27;;;;;;;;;;4947044;29;20095;-70
2024/01/06 13:20:27;;;;;;;13.95;9.25;;;;;;;;;;4929514;29;20055;-70
2024/01/06 13:22:53;;;;;;;11.10;8.98;;;;;;;;;;4927222;29;20114;-70
2024/01/06 13:25:19;;;;;;;15.25;9.80;;;;;;;;;;4928033;29;20316;-70
2024/01/06 13:27:46;;;;;;;13.30;9.50;;;;;;;;;;4925346;29;20047;-70
2024/01/06 13:30:12;;;;;;;13.70;9.68;;;;;;;;;;4946093;29;20051;-70
2024/01/06 13:32:39;;;;;;;14.70;9.63;;;;;;;;;;4928094;29;20086;-70
2024/01/06 13:35:05;;;;;;;14.90;9.75;;;;;;;;;;4928598;29;20144;-70
2024/01/06 13:37:34;;;;;;;12.73;8.98;;;;;;;;;;4946346;29;20054;-70
2024/01/06 13:40:00;;;;;;;11.95;9.07;;;;;;;;;;4925435;29;20137;-70
2024/01/06 13:42:26;;;;;;;12.25;8.73;;;;;;;;;;4923249;29;20047;-70
2024/01/06 13:44:53;;;;;;;12.63;9.32;;;;;;;;;;4928478;29;20047;-70
2024/01/06 13:47:19;;;;;;;11.95;8.93;;;;;;;;;;4927499;29;20059;-70
2024/01/06 13:49:45;;;;;;;14.88;9.27;;;;;;;;;;4927944;29;20059;-70
2024/01/06 13:52:11;;;;;;;13.20;9.20;;;;;;;;;;4924596;29;20047;-70
2024/01/06 13:54:37;;;;;;;12.93;8.73;;;;;;;;;;4924497;29;20047;-70
2024/01/06 13:57:03;;;;;;;12.88;8.93;;;;;;;;;;4927022;29;20043;-70
2024/01/06 13:59:29;;;;;;;13.48;10.02;;;;;;;;;;4927694;29;20039;-70
2024/01/06 14:01:55;;;;;;;13.90;9.00;;;;;;;;;;4928289;29;20089;-70
2024/01/06 14:04:23;;;;;;;13.10;8.60;;;;;;;;;;4927343;29;20047;-69
2024/01/06 14:06:55;;;;;;;13.40;8.98;;;;;;;;;;4925691;29;20098;-70
2024/01/06 14:09:22;;;;;;;12.55;8.90;;;;;;;;;;4925361;29;20426;-70
2024/01/06 14:11:48;;;;;;;11.77;8.23;;;;;;;;;;4927172;29;20089;-70
2024/01/06 14:14:13;;;;;;;15.93;9.38;;;;;;;;;;4944615;29;20039;-70